Time;durP1;ratioP1;P1;durP2;ratioP2;P2;SDS_P1;SDS_P2;PMS_P1;PMS_P2;Temp;Humidity;BMP_temperature;BMP_pressure;BME280_temperature;BME280_humidity;BME280_pressure;Samples;Min_cycle;Max_cycle;Signal;HPM_P1;HPM_P2
2021/12/10 00:00:23;;;;;;;58.40;32.80;;;3.80;99.90;;;;;;5023131;28;20164;-48
2021/12/10 00:02:49;;;;;;;62.13;33.77;;;3.90;99.90;;;;;;5021170;28;20057;-48
2021/12/10 00:05:19;;;;;;;62.63;34.20;;;3.90;99.90;;;;;;5024184;28;20083;-47
2021/12/10 00:07:46;;;;;;;58.47;35.67;;;3.90;99.90;;;;;;5023342;28;20093;-50
2021/12/10 00:10:18;;;;;;;55.63;32.83;;;4.00;99.90;;;;;;5023668;28;20065;-48
2021/12/10 00:12:50;;;;;;;65.05;36.63;;;4.00;99.90;;;;;;5027564;28;20088;-47
2021/12/10 00:15:20;;;;;;;61.65;34.05;;;4.10;99.90;;;;;;5028403;28;20577;-48
2021/12/10 00:17:47;;;;;;;63.75;33.83;;;4.10;99.90;;;;;;5011774;28;20057;-48
2021/12/10 00:20:14;;;;;;;63.17;35.92;;;4.10;99.90;;;;;;5027237;28;20501;-48
2021/12/10 00:22:56;;;;;;;54.42;32.20;;;4.10;99.90;;;;;;5022588;28;20590;-49
2021/12/10 00:25:34;;;;;;;57.47;34.03;;;4.10;99.90;;;;;;5021980;28;20092;-48
2021/12/10 00:28:02;;;;;;;57.55;33.47;;;4.20;99.90;;;;;;5012665;28;20935;-48
2021/12/10 00:30:33;;;;;;;61.35;33.55;;;4.10;99.90;;;;;;5022807;28;20057;-48
2021/12/10 00:33:14;;;;;;;56.13;32.67;;;4.20;99.90;;;;;;5024028;28;20053;-48
2021/12/10 00:35:42;;;;;;;66.63;35.50;;;4.20;99.90;;;;;;5034087;28;20511;-49
2021/12/10 00:38:09;;;;;;;54.20;33.72;;;4.20;99.90;;;;;;5013115;28;20465;-50
2021/12/10 00:40:35;;;;;;;53.35;32.78;;;4.20;99.90;;;;;;5023091;28;20133;-51
2021/12/10 00:43:03;;;;;;;62.25;35.90;;;4.20;99.90;;;;;;5030046;28;20061;-51
2021/12/10 00:45:33;;;;;;;59.20;34.00;;;4.20;99.90;;;;;;5024908;28;20108;-48
2021/12/10 00:48:02;;;;;;;59.15;33.83;;;4.20;99.90;;;;;;5028661;28;20050;-48
2021/12/10 00:50:38;;;;;;;58.63;31.83;;;4.20;99.90;;;;;;5029928;28;20484;-48
2021/12/10 00:53:04;;;;;;;52.35;32.00;;;4.30;99.90;;;;;;5022795;28;20135;-50
2021/12/10 00:55:30;;;;;;;59.63;34.67;;;4.20;99.90;;;;;;5023103;28;20049;-48
2021/12/10 00:57:57;;;;;;;54.70;33.03;;;4.20;99.90;;;;;;5019825;28;20511;-47
2021/12/10 01:00:48;;;;;;;63.08;33.83;;;4.20;99.90;;;;;;5005554;28;20065;-49
2021/12/10 01:03:18;;;;;;;55.90;30.80;;;4.20;99.90;;;;;;5008785;28;20057;-48
2021/12/10 01:05:48;;;;;;;57.47;34.58;;;4.20;99.90;;;;;;5005162;28;20057;-48
2021/12/10 01:08:14;;;;;;;61.45;32.55;;;4.20;99.90;;;;;;5004889;28;20132;-48
2021/12/10 01:10:51;;;;;;;48.78;29.92;;;4.20;99.90;;;;;;5022465;28;20053;-48
2021/12/10 01:13:24;;;;;;;45.25;30.20;;;4.10;99.90;;;;;;5024550;28;20053;-48
2021/12/10 01:27:00;;;;;;;43.22;26.90;;;3.90;99.90;;;;;;5016616;28;20103;-50
2021/12/10 01:29:33;;;;;;;44.22;25.92;;;3.90;99.90;;;;;;5018558;28;20057;-48
2021/12/10 01:32:01;;;;;;;39.47;24.60;;;4.00;99.90;;;;;;5026840;28;20441;-48
2021/12/10 01:34:27;;;;;;;42.75;24.15;;;4.00;99.90;;;;;;5018006;28;20053;-49
2021/12/10 01:36:53;;;;;;;44.90;24.85;;;4.00;99.90;;;;;;5012031;28;20088;-48
2021/12/10 01:39:24;;;;;;;40.65;24.05;;;4.10;99.90;;;;;;5022693;28;20053;-48
2021/12/10 01:41:56;;;;;;;42.75;24.17;;;4.00;99.90;;;;;;5018640;28;20065;-47
2021/12/10 01:44:31;;;;;;;27.05;17.52;;;4.00;99.90;;;;;;5033347;28;20178;-51
2021/12/10 01:47:00;;;;;;;37.10;24.13;;;4.00;99.90;;;;;;5023049;28;20060;-51
2021/12/10 01:49:27;;;;;;;45.67;24.35;;;4.00;99.90;;;;;;5023678;28;20405;-49
2021/12/10 01:51:54;;;;;;;44.53;23.67;;;4.00;99.90;;;;;;5022145;28;20069;-48
2021/12/10 01:54:24;;;;;;;39.70;24.48;;;4.00;99.90;;;;;;5023327;28;20448;-48
2021/12/10 01:56:55;;;;;;;38.15;24.50;;;4.00;99.90;;;;;;5005416;28;20076;-48
2021/12/10 01:59:21;;;;;;;38.55;21.83;;;4.10;99.90;;;;;;5023303;28;20050;-49
2021/12/10 02:01:51;;;;;;;35.00;21.92;;;4.10;99.90;;;;;;5023600;28;20136;-49
2021/12/10 02:04:20;;;;;;;38.38;21.27;;;4.00;99.90;;;;;;5019161;28;20061;-49
2021/12/10 02:06:46;;;;;;;38.55;24.50;;;4.10;99.90;;;;;;5022062;28;20065;-49
2021/12/10 02:09:14;;;;;;;31.85;21.42;;;4.10;99.90;;;;;;5004557;28;20053;-50
2021/12/10 02:11:40;;;;;;;36.42;20.83;;;4.10;99.90;;;;;;5023129;28;20049;-47
2021/12/10 02:14:07;;;;;;;37.03;22.00;;;4.10;99.90;;;;;;5032332;28;20498;-48
2021/12/10 02:16:33;;;;;;;35.70;21.90;;;4.10;99.90;;;;;;5015241;28;20077;-47
2021/12/10 02:18:59;;;;;;;35.72;21.15;;;4.00;99.90;;;;;;5018987;28;20053;-48
2021/12/10 02:21:27;;;;;;;37.33;21.23;;;4.00;99.90;;;;;;5031915;28;20342;-49
2021/12/10 02:23:57;;;;;;;37.70;20.15;;;4.00;99.90;;;;;;5025098;28;20064;-48
2021/12/10 02:26:29;;;;;;;31.75;19.75;;;4.00;99.90;;;;;;5014026;28;20053;-48
2021/12/10 02:28:55;;;;;;;31.92;19.45;;;4.00;99.90;;;;;;5026212;28;20064;-48
2021/12/10 02:31:22;;;;;;;33.33;19.90;;;4.00;99.90;;;;;;5025186;28;20061;-48
2021/12/10 02:33:47;;;;;;;29.50;20.02;;;4.00;99.90;;;;;;5027320;28;20046;-51
2021/12/10 02:36:13;;;;;;;33.58;19.33;;;4.00;99.90;;;;;;5023581;28;20527;-50
2021/12/10 02:38:48;;;;;;;30.45;18.25;;;4.00;99.90;;;;;;5007776;28;20115;-47
2021/12/10 02:41:16;;;;;;;29.67;19.50;;;4.00;99.90;;;;;;5020385;28;20057;-48
2021/12/10 02:43:42;;;;;;;35.10;19.73;;;4.00;99.90;;;;;;5036603;28;20106;-47
2021/12/10 02:46:08;;;;;;;30.83;20.08;;;4.00;99.90;;;;;;5028423;28;20084;-50
2021/12/10 02:48:34;;;;;;;34.50;19.35;;;4.00;99.90;;;;;;5046219;28;20222;-50
2021/12/10 02:51:04;;;;;;;31.27;20.85;;;4.00;99.90;;;;;;5028592;28;20071;-48
2021/12/10 02:53:35;;;;;;;34.53;20.70;;;4.00;99.90;;;;;;5050351;28;20339;-50
2021/12/10 02:56:03;;;;;;;31.65;20.80;;;4.00;99.90;;;;;;5047093;28;20060;-50
2021/12/10 02:58:29;;;;;;;35.13;20.67;;;4.00;99.90;;;;;;5044230;28;20053;-48
2021/12/10 03:01:09;;;;;;;35.90;20.25;;;4.00;99.90;;;;;;5045627;28;20510;-50
2021/12/10 03:03:37;;;;;;;30.20;20.67;;;4.00;99.90;;;;;;5046289;28;20068;-49
2021/12/10 03:06:10;;;;;;;33.72;20.63;;;4.00;99.90;;;;;;5027402;28;20063;-48
2021/12/10 03:08:37;;;;;;;33.05;21.85;;;4.00;99.90;;;;;;5045501;28;20464;-48
2021/12/10 03:11:03;;;;;;;35.03;20.80;;;3.90;99.90;;;;;;5027508;28;20179;-47
2021/12/10 03:13:29;;;;;;;31.35;20.92;;;3.90;99.90;;;;;;5016999;28;20504;-47
2021/12/10 03:15:55;;;;;;;31.85;19.55;;;3.90;99.90;;;;;;5026375;28;20152;-48
2021/12/10 03:18:21;;;;;;;29.15;20.02;;;3.80;99.90;;;;;;5012123;28;20057;-49
2021/12/10 03:20:47;;;;;;;31.17;19.38;;;3.80;99.90;;;;;;4995097;28;20821;-47
2021/12/10 03:23:14;;;;;;;31.40;18.55;;;3.80;99.90;;;;;;5007569;28;20064;-49
2021/12/10 03:25:41;;;;;;;29.65;17.20;;;3.80;99.90;;;;;;5029530;28;20064;-51
2021/12/10 03:28:08;;;;;;;25.98;18.70;;;3.70;99.90;;;;;;5024506;28;20500;-47
2021/12/10 03:30:40;;;;;;;30.67;19.02;;;3.70;99.90;;;;;;5006570;28;20103;-47
2021/12/10 03:33:07;;;;;;;26.50;17.13;;;3.60;99.90;;;;;;5030587;28;20060;-48
2021/12/10 03:35:36;;;;;;;29.42;17.80;;;3.50;99.90;;;;;;5012319;28;20088;-48
2021/12/10 03:38:04;;;;;;;30.42;17.33;;;3.40;99.90;;;;;;5026472;28;20064;-48
2021/12/10 03:40:32;;;;;;;28.88;18.00;;;3.40;99.90;;;;;;5030527;28;20061;-48
2021/12/10 03:42:58;;;;;;;26.77;17.75;;;3.40;99.90;;;;;;5031021;28;20063;-48
2021/12/10 03:45:34;;;;;;;30.63;17.38;;;3.40;99.90;;;;;;5032523;28;20127;-47
2021/12/10 03:48:02;;;;;;;26.58;16.58;;;3.40;99.90;;;;;;5000367;28;20581;-51
2021/12/10 03:50:31;;;;;;;25.95;17.42;;;3.40;99.90;;;;;;5032752;28;20599;-48
2021/12/10 03:52:57;;;;;;;25.27;17.10;;;3.40;99.90;;;;;;5029174;28;20851;-48
2021/12/10 03:55:23;;;;;;;29.27;16.42;;;3.40;99.90;;;;;;5025161;28;20128;-51
2021/12/10 03:57:51;;;;;;;25.65;17.35;;;3.30;99.90;;;;;;5006423;28;20143;-47
2021/12/10 04:00:20;;;;;;;28.15;16.50;;;3.30;99.90;;;;;;5027256;28;20057;-50
2021/12/10 04:02:46;;;;;;;25.70;17.25;;;3.30;99.90;;;;;;5029945;28;20133;-51
2021/12/10 04:05:12;;;;;;;32.47;17.30;;;3.20;99.90;;;;;;5031935;28;20092;-51
2021/12/10 04:07:38;;;;;;;30.98;17.95;;;3.10;99.90;;;;;;5024754;28;20059;-48
2021/12/10 04:10:08;;;;;;;27.70;17.38;;;3.10;99.90;;;;;;5025642;28;20132;-48
2021/12/10 04:12:34;;;;;;;28.02;15.98;;;3.00;99.90;;;;;;5032876;28;20136;-49
2021/12/10 04:15:01;;;;;;;28.73;16.33;;;2.90;99.90;;;;;;5029239;28;20067;-51
2021/12/10 04:17:27;;;;;;;26.85;17.17;;;2.80;99.90;;;;;;5024821;28;20053;-49
2021/12/10 04:19:54;;;;;;;28.95;16.77;;;2.80;99.90;;;;;;5025962;28;20495;-48
2021/12/10 04:22:22;;;;;;;30.10;16.80;;;2.70;99.90;;;;;;5025758;28;20401;-48
2021/12/10 04:24:50;;;;;;;32.05;17.17;;;2.70;99.90;;;;;;5021272;28;20681;-48
2021/12/10 04:27:18;;;;;;;26.67;16.05;;;2.60;99.90;;;;;;5022097;28;20064;-47
2021/12/10 04:29:44;;;;;;;23.95;15.50;;;2.60;99.90;;;;;;5023247;28;20610;-50
2021/12/10 04:32:12;;;;;;;23.90;16.33;;;2.50;99.90;;;;;;5005441;28;20614;-49
2021/12/10 04:34:38;;;;;;;33.35;16.23;;;2.50;99.90;;;;;;5015745;28;20058;-49
2021/12/10 04:37:06;;;;;;;23.20;15.18;;;2.40;99.90;;;;;;5022063;28;20053;-47
2021/12/10 04:39:34;;;;;;;26.95;15.20;;;2.30;99.90;;;;;;5020116;28;20053;-48
2021/12/10 04:42:00;;;;;;;25.73;16.30;;;2.30;99.90;;;;;;5026605;28;20095;-48
2021/12/10 04:44:27;;;;;;;26.02;15.68;;;2.20;99.90;;;;;;5021961;28;20140;-48
2021/12/10 04:46:52;;;;;;;26.63;16.00;;;2.20;99.90;;;;;;5023775;28;20065;-49
2021/12/10 04:49:18;;;;;;;21.52;15.45;;;2.20;99.90;;;;;;5022509;28;20096;-48
2021/12/10 04:51:49;;;;;;;26.77;15.65;;;2.10;99.90;;;;;;5022664;28;20061;-48
2021/12/10 04:54:18;;;;;;;23.85;15.20;;;2.10;99.90;;;;;;5023734;28;20054;-47
2021/12/10 04:56:46;;;;;;;26.73;14.90;;;2.00;99.90;;;;;;5004925;28;20093;-48
2021/12/10 04:59:16;;;;;;;28.75;14.98;;;2.00;99.90;;;;;;5022498;28;20147;-49
2021/12/10 05:01:43;;;;;;;24.20;15.50;;;2.00;99.90;;;;;;4988381;28;20053;-50
2021/12/10 05:04:11;;;;;;;24.67;14.88;;;2.00;99.90;;;;;;5025219;28;20134;-47
2021/12/10 05:06:39;;;;;;;27.52;14.98;;;2.00;99.90;;;;;;5018189;28;20053;-49
2021/12/10 05:09:08;;;;;;;22.80;14.10;;;2.00;99.90;;;;;;5030757;28;20056;-49
2021/12/10 05:11:34;;;;;;;24.45;15.00;;;2.00;99.90;;;;;;5046553;28;20064;-50
2021/12/10 05:14:02;;;;;;;27.65;15.30;;;2.00;99.90;;;;;;5047014;28;20057;-56
2021/12/10 05:16:28;;;;;;;27.20;15.75;;;2.00;99.90;;;;;;5049469;28;20057;-48
2021/12/10 05:19:00;;;;;;;25.20;15.20;;;2.00;99.90;;;;;;5049772;28;20513;-48
2021/12/10 05:21:29;;;;;;;19.10;14.18;;;2.00;99.90;;;;;;5046366;28;20092;-48
2021/12/10 05:23:57;;;;;;;24.27;16.08;;;2.00;99.90;;;;;;5051950;28;20063;-48
2021/12/10 05:26:23;;;;;;;26.38;17.23;;;2.00;99.90;;;;;;5041457;28;20108;-49
2021/12/10 05:28:49;;;;;;;23.10;15.43;;;2.00;99.90;;;;;;5042264;28;20128;-51
2021/12/10 05:31:16;;;;;;;28.33;16.25;;;2.00;99.90;;;;;;5051818;28;20051;-48
2021/12/10 05:33:46;;;;;;;27.23;16.90;;;2.00;99.90;;;;;;5046169;28;20052;-47
2021/12/10 05:36:12;;;;;;;26.88;16.88;;;2.00;99.90;;;;;;5042673;28;20462;-50
2021/12/10 05:38:38;;;;;;;33.00;18.92;;;2.00;99.90;;;;;;5042739;28;20057;-48
2021/12/10 05:41:06;;;;;;;29.27;18.00;;;2.00;99.90;;;;;;5020993;28;20583;-51
2021/12/10 05:43:33;;;;;;;36.70;19.70;;;2.00;99.90;;;;;;5022959;28;20057;-48
2021/12/10 05:45:59;;;;;;;28.95;19.23;;;2.00;99.90;;;;;;5042420;28;20064;-49
2021/12/10 05:48:25;;;;;;;30.65;19.77;;;2.00;99.90;;;;;;5045690;28;20068;-47
2021/12/10 05:50:52;;;;;;;28.20;20.27;;;2.00;99.90;;;;;;5029482;28;20575;-49
2021/12/10 05:53:18;;;;;;;30.00;18.85;;;2.00;99.90;;;;;;5029090;28;20078;-48
2021/12/10 05:55:44;;;;;;;35.22;20.80;;;2.00;99.90;;;;;;5052029;28;20063;-48
2021/12/10 05:58:11;;;;;;;26.00;19.88;;;2.00;99.90;;;;;;5048637;28;20573;-49
2021/12/10 06:00:47;;;;;;;30.20;19.35;;;2.00;99.90;;;;;;5047567;28;20352;-47
2021/12/10 06:03:13;;;;;;;29.10;20.00;;;2.00;99.90;;;;;;5025236;28;20545;-49
2021/12/10 06:05:41;;;;;;;29.17;19.58;;;2.00;99.90;;;;;;5028618;28;20053;-48
2021/12/10 06:08:08;;;;;;;31.60;20.55;;;2.00;99.90;;;;;;5048627;28;20471;-49
2021/12/10 06:10:35;;;;;;;29.10;20.15;;;2.00;99.90;;;;;;5048317;28;20091;-48
2021/12/10 06:13:01;;;;;;;32.45;20.70;;;2.00;99.90;;;;;;5028783;28;20136;-48
2021/12/10 06:15:27;;;;;;;31.48;20.25;;;2.00;99.90;;;;;;5047585;28;20059;-49
2021/12/10 06:17:54;;;;;;;34.30;19.33;;;2.00;99.90;;;;;;5055098;28;20107;-48
2021/12/10 06:20:24;;;;;;;30.45;20.08;;;2.00;99.90;;;;;;5047776;28;20057;-51
2021/12/10 06:22:51;;;;;;;28.92;19.73;;;2.00;99.90;;;;;;5052465;28;20071;-50
2021/12/10 06:25:22;;;;;;;28.98;20.17;;;2.00;99.90;;;;;;5052158;28;20048;-49
2021/12/10 06:27:47;;;;;;;30.67;19.38;;;2.00;99.90;;;;;;5034798;28;20065;-47
2021/12/10 06:30:20;;;;;;;29.98;18.00;;;1.90;99.90;;;;;;5051302;28;20064;-51
2021/12/10 06:32:48;;;;;;;27.63;18.65;;;2.00;99.90;;;;;;5034386;28;20111;-48
2021/12/10 06:35:15;;;;;;;30.42;18.65;;;1.90;99.90;;;;;;5023275;28;20159;-48
2021/12/10 06:37:43;;;;;;;29.35;19.02;;;1.90;99.90;;;;;;5047922;28;20096;-48
2021/12/10 06:40:15;;;;;;;29.23;18.10;;;1.90;99.90;;;;;;5054695;28;20053;-48
2021/12/10 06:42:42;;;;;;;30.48;18.05;;;1.90;99.90;;;;;;5042446;28;20397;-49
2021/12/10 06:45:10;;;;;;;27.90;17.52;;;1.90;99.90;;;;;;5045764;28;20091;-48
2021/12/10 06:47:36;;;;;;;24.50;17.42;;;1.80;99.90;;;;;;5050004;28;20114;-48
2021/12/10 06:50:04;;;;;;;25.40;16.35;;;1.90;99.90;;;;;;5056214;28;20057;-47
2021/12/10 06:52:31;;;;;;;29.55;17.30;;;1.80;99.90;;;;;;5051111;28;20092;-47
2021/12/10 06:54:56;;;;;;;23.48;15.60;;;1.90;99.90;;;;;;5037094;28;20102;-48
2021/12/10 06:57:22;;;;;;;24.27;15.52;;;1.80;99.90;;;;;;5045712;28;20061;-49
2021/12/10 06:59:48;;;;;;;21.83;15.60;;;1.90;99.90;;;;;;5044620;28;20175;-48
2021/12/10 07:02:14;;;;;;;22.65;15.77;;;1.80;99.90;;;;;;5045882;28;20507;-49
2021/12/10 07:04:41;;;;;;;29.33;20.73;;;1.80;99.90;;;;;;5011384;28;20664;-48
2021/12/10 07:07:11;;;;;;;26.08;17.25;;;1.70;99.90;;;;;;5027687;28;20168;-48
2021/12/10 07:09:38;;;;;;;23.45;16.98;;;1.70;99.90;;;;;;5032292;28;20057;-48
2021/12/10 07:12:05;;;;;;;19.92;14.85;;;1.70;99.90;;;;;;5027435;28;20611;-50
2021/12/10 07:14:32;;;;;;;20.08;15.85;;;1.70;99.90;;;;;;5046203;28;20053;-50
2021/12/10 07:16:58;;;;;;;25.17;16.00;;;1.70;99.90;;;;;;5044345;28;20052;-47
2021/12/10 07:19:28;;;;;;;20.75;16.00;;;1.80;99.90;;;;;;5033420;28;20091;-48
2021/12/10 07:21:59;;;;;;;23.67;15.18;;;1.80;99.90;;;;;;5033173;28;20115;-50
2021/12/10 07:24:25;;;;;;;18.02;14.15;;;1.80;99.90;;;;;;5034217;28;20057;-51
2021/12/10 07:26:51;;;;;;;27.58;16.67;;;1.80;99.90;;;;;;5036060;28;20063;-50
2021/12/10 07:29:17;;;;;;;19.33;13.63;;;1.80;99.90;;;;;;5046944;28;20077;-51
2021/12/10 07:31:49;;;;;;;18.15;13.52;;;1.80;99.90;;;;;;5045515;28;20048;-51
2021/12/10 07:34:14;;;;;;;18.02;13.52;;;1.80;99.90;;;;;;5052762;28;20052;-48
2021/12/10 07:36:40;;;;;;;20.50;13.55;;;1.80;99.90;;;;;;5044717;28;20053;-50
2021/12/10 07:39:10;;;;;;;21.88;13.00;;;1.80;99.90;;;;;;5046654;28;20063;-48
2021/12/10 07:41:37;;;;;;;21.92;14.38;;;1.80;99.90;;;;;;5009885;28;20137;-48
2021/12/10 07:44:04;;;;;;;21.63;14.52;;;1.80;99.90;;;;;;5044864;28;20157;-49
2021/12/10 07:46:32;;;;;;;16.10;12.77;;;1.80;99.90;;;;;;5043046;28;20087;-48
2021/12/10 07:48:58;;;;;;;19.63;14.88;;;1.80;99.90;;;;;;5045989;28;20056;-51
2021/12/10 07:51:27;;;;;;;21.92;15.15;;;1.80;99.90;;;;;;5045565;28;21407;-48
2021/12/10 07:53:57;;;;;;;21.90;14.68;;;1.80;99.90;;;;;;5049333;28;20080;-49
2021/12/10 07:56:28;;;;;;;29.23;20.88;;;1.80;99.90;;;;;;5013351;28;20110;-48
2021/12/10 07:58:55;;;;;;;29.90;19.40;;;1.80;99.90;;;;;;5048058;28;20107;-48
2021/12/10 08:01:27;;;;;;;25.88;16.08;;;1.80;99.90;;;;;;5012441;28;20065;-49
2021/12/10 08:03:56;;;;;;;21.43;14.27;;;1.80;99.90;;;;;;5045497;28;20053;-49
2021/12/10 08:06:27;;;;;;;26.85;17.92;;;1.80;99.90;;;;;;5027337;28;20438;-47
2021/12/10 08:08:53;;;;;;;21.45;16.05;;;1.80;99.90;;;;;;5047707;28;20223;-48
2021/12/10 08:11:34;;;;;;;17.73;11.20;;;1.80;99.90;;;;;;5048351;28;20553;-49
2021/12/10 08:14:00;;;;;;;16.58;11.05;;;1.80;99.90;;;;;;5032163;28;20064;-50
2021/12/10 08:16:26;;;;;;;23.73;15.68;;;1.80;99.90;;;;;;5049948;28;20569;-48
2021/12/10 08:19:01;;;;;;;16.20;11.50;;;1.90;99.90;;;;;;5049396;28;20587;-50
2021/12/10 08:21:27;;;;;;;18.42;11.57;;;1.90;99.90;;;;;;5048133;28;20135;-48
2021/12/10 08:23:53;;;;;;;16.67;10.50;;;1.90;99.90;;;;;;5030868;28;20171;-48
2021/12/10 08:26:20;;;;;;;15.68;10.57;;;1.90;99.90;;;;;;5045205;28;20045;-49
2021/12/10 08:28:47;;;;;;;17.95;11.10;;;1.90;99.90;;;;;;5048786;28;20110;-49
2021/12/10 08:31:15;;;;;;;18.85;11.23;;;1.90;99.90;;;;;;5031230;28;20140;-48
2021/12/10 08:33:57;;;;;;;15.27;10.93;;;1.90;99.90;;;;;;5024388;28;20059;-47
2021/12/10 08:36:33;;;;;;;18.30;11.10;;;1.90;99.90;;;;;;5044987;28;20092;-50
2021/12/10 08:39:07;;;;;;;15.02;11.05;;;1.90;99.90;;;;;;5045171;28;20057;-48
2021/12/10 08:41:34;;;;;;;16.02;10.38;;;1.90;99.90;;;;;;5043825;28;20597;-49
2021/12/10 08:44:01;;;;;;;20.52;10.63;;;1.90;99.90;;;;;;5044017;28;20048;-48
2021/12/10 08:46:28;;;;;;;16.60;10.63;;;1.90;99.90;;;;;;5032535;28;20522;-48
2021/12/10 08:48:55;;;;;;;18.02;10.38;;;1.90;99.90;;;;;;5026105;28;20053;-48
2021/12/10 08:51:25;;;;;;;18.00;11.15;;;1.90;99.90;;;;;;5044947;28;20415;-48
2021/12/10 08:53:52;;;;;;;16.25;10.77;;;1.90;99.90;;;;;;5047730;28;20076;-48
2021/12/10 08:56:18;;;;;;;17.02;10.45;;;1.90;99.90;;;;;;5048399;28;20479;-50
2021/12/10 08:58:45;;;;;;;15.13;11.32;;;2.00;99.90;;;;;;5044201;28;20499;-51
2021/12/10 09:01:17;;;;;;;15.93;10.13;;;2.00;99.90;;;;;;5044311;28;20083;-48
2021/12/10 09:03:48;;;;;;;18.47;11.53;;;2.00;99.90;;;;;;5032127;28;20523;-49
2021/12/10 09:06:15;;;;;;;17.55;11.30;;;1.90;99.90;;;;;;5049591;28;20319;-48
2021/12/10 09:08:45;;;;;;;14.82;11.07;;;2.00;99.90;;;;;;5044309;28;20092;-48
2021/12/10 09:11:12;;;;;;;15.93;11.45;;;2.00;99.90;;;;;;5044619;28;20111;-49
2021/12/10 09:13:39;;;;;;;16.58;11.43;;;2.00;99.90;;;;;;5035992;28;20071;-49
2021/12/10 09:16:24;;;;;;;13.85;10.88;;;2.00;99.90;;;;;;5025559;28;20259;-51
2021/12/10 09:18:53;;;;;;;16.85;11.93;;;2.00;99.90;;;;;;5044071;28;20079;-50
2021/12/10 09:21:20;;;;;;;15.95;11.13;;;2.00;99.90;;;;;;5043325;28;20052;-49
2021/12/10 09:23:46;;;;;;;17.80;12.05;;;2.10;99.90;;;;;;5042863;28;20136;-48
2021/12/10 09:26:16;;;;;;;18.00;11.55;;;2.10;99.90;;;;;;5024654;28;20067;-49
2021/12/10 09:28:44;;;;;;;19.38;11.55;;;2.10;99.90;;;;;;5030710;28;20419;-49
2021/12/10 09:31:12;;;;;;;19.70;14.48;;;2.20;99.90;;;;;;5043545;28;20048;-48
2021/12/10 09:33:38;;;;;;;18.92;14.18;;;2.20;99.90;;;;;;5024403;28;20111;-48
2021/12/10 09:36:05;;;;;;;22.08;14.60;;;2.20;99.90;;;;;;5034203;28;20063;-48
2021/12/10 09:38:32;;;;;;;19.05;11.73;;;2.20;99.90;;;;;;5028978;28;20053;-52
2021/12/10 09:41:04;;;;;;;17.98;10.07;;;2.30;99.90;;;;;;5053682;28;20128;-51
2021/12/10 09:43:33;;;;;;;15.63;9.57;;;2.30;99.90;;;;;;5050649;28;20442;-55
2021/12/10 09:46:00;;;;;;;19.40;11.50;;;2.40;99.90;;;;;;5057634;28;20053;-48
2021/12/10 09:48:29;;;;;;;14.23;9.35;;;2.40;99.90;;;;;;5043135;28;20598;-48
2021/12/10 09:51:10;;;;;;;12.98;8.73;;;2.40;99.90;;;;;;5044912;28;20071;-48
2021/12/10 09:53:38;;;;;;;11.93;8.68;;;2.50;99.90;;;;;;5008073;28;20052;-49
2021/12/10 09:56:05;;;;;;;17.80;9.23;;;2.50;99.90;;;;;;5042829;28;20053;-49
2021/12/10 09:58:32;;;;;;;12.93;8.63;;;2.50;99.90;;;;;;5042983;28;20481;-48
2021/12/10 10:01:05;;;;;;;16.67;9.00;;;2.60;99.90;;;;;;5025381;28;20088;-47
2021/12/10 10:03:35;;;;;;;16.48;10.27;;;2.60;99.90;;;;;;5016481;28;20053;-48
2021/12/10 10:06:01;;;;;;;16.27;9.00;;;2.60;99.90;;;;;;5050401;28;20115;-48
2021/12/10 10:08:28;;;;;;;13.93;9.35;;;2.70;99.90;;;;;;5041789;28;20053;-51
2021/12/10 10:11:02;;;;;;;13.68;7.95;;;2.70;99.90;;;;;;5049738;28;20092;-49
2021/12/10 10:13:33;;;;;;;9.48;7.03;;;2.70;99.90;;;;;;5046905;28;20551;-48
2021/12/10 10:16:00;;;;;;;15.40;8.38;;;2.80;99.90;;;;;;5052082;28;20408;-47
2021/12/10 10:18:28;;;;;;;14.68;8.50;;;2.80;99.90;;;;;;5051754;28;20063;-48
2021/12/10 10:21:04;;;;;;;11.60;7.85;;;2.80;99.90;;;;;;5048563;28;20049;-51
2021/12/10 10:23:30;;;;;;;13.30;7.60;;;2.80;99.90;;;;;;5042027;28;20100;-52
2021/12/10 10:26:00;;;;;;;11.48;7.90;;;2.90;99.90;;;;;;5048101;28;20088;-48
2021/12/10 10:28:27;;;;;;;10.63;6.47;;;2.90;99.90;;;;;;5048500;28;20060;-50
2021/12/10 10:31:02;;;;;;;16.00;7.70;;;3.00;99.90;;;;;;5042845;28;20466;-49
2021/12/10 10:33:34;;;;;;;15.43;9.13;;;3.00;99.90;;;;;;5027397;28;20451;-48
2021/12/10 10:36:05;;;;;;;17.92;10.93;;;3.10;99.90;;;;;;5050516;28;20424;-49
2021/12/10 10:38:31;;;;;;;13.00;7.25;;;3.10;99.90;;;;;;5026287;28;20260;-49
2021/12/10 10:41:06;;;;;;;13.98;8.20;;;3.20;99.90;;;;;;5028310;28;20061;-48
2021/12/10 10:43:33;;;;;;;12.90;7.68;;;3.20;99.90;;;;;;5046840;28;20068;-48
2021/12/10 10:45:59;;;;;;;12.18;7.82;;;3.30;99.90;;;;;;5061479;28;20511;-48
2021/12/10 10:48:26;;;;;;;14.30;7.80;;;3.30;99.90;;;;;;5041748;28;20064;-49
2021/12/10 10:51:11;;;;;;;11.23;7.00;;;3.30;99.90;;;;;;5056337;28;20053;-49
2021/12/10 10:53:44;;;;;;;12.82;7.22;;;3.40;99.90;;;;;;5031133;28;20079;-49
2021/12/10 10:56:24;;;;;;;10.27;6.68;;;3.40;99.90;;;;;;5057563;28;20049;-51
2021/12/10 10:58:55;;;;;;;9.73;7.00;;;3.40;99.90;;;;;;5050769;28;20131;-48
2021/12/10 11:01:40;;;;;;;11.55;6.88;;;3.50;99.90;;;;;;5028253;28;20057;-50
2021/12/10 11:04:15;;;;;;;8.60;6.32;;;3.50;99.90;;;;;;5011572;28;20064;-49
2021/12/10 11:06:44;;;;;;;12.50;6.03;;;3.50;99.90;;;;;;5045270;28;20061;-49
2021/12/10 11:09:12;;;;;;;10.88;6.75;;;3.50;99.90;;;;;;5024824;28;20049;-50
2021/12/10 11:11:45;;;;;;;11.27;6.15;;;3.50;99.90;;;;;;5047290;28;20099;-49
2021/12/10 11:14:20;;;;;;;11.68;7.22;;;3.50;99.90;;;;;;5046375;28;20037;-48
2021/12/10 11:16:51;;;;;;;12.67;6.70;;;3.60;99.90;;;;;;5026656;28;20500;-51
2021/12/10 11:19:23;;;;;;;11.60;6.90;;;3.60;99.90;;;;;;5047077;28;20308;-50
2021/12/10 11:21:54;;;;;;;13.55;7.22;;;3.60;99.90;;;;;;5048203;28;20061;-48
2021/12/10 11:24:38;;;;;;;11.48;6.65;;;3.60;99.90;;;;;;5057787;28;20079;-48
2021/12/10 11:27:12;;;;;;;12.32;6.53;;;3.60;99.90;;;;;;5024879;28;20132;-49
2021/12/10 11:29:50;;;;;;;9.63;5.18;;;3.60;99.90;;;;;;5044865;28;20099;-51
2021/12/10 11:32:19;;;;;;;8.50;5.40;;;3.60;99.90;;;;;;5025681;28;20140;-51
2021/12/10 11:34:52;;;;;;;10.20;5.53;;;3.70;99.90;;;;;;5042101;28;20066;-48
2021/12/10 11:37:43;;;;;;;10.00;5.25;;;3.60;99.90;;;;;;5055042;28;20057;-48
2021/12/10 11:40:27;;;;;;;12.43;7.38;;;3.60;99.90;;;;;;5009131;28;20049;-50
2021/12/10 11:43:02;;;;;;;10.75;7.18;;;3.60;99.90;;;;;;5045171;28;20124;-49
2021/12/10 11:45:41;;;;;;;8.35;6.05;;;3.70;99.90;;;;;;5011952;28;20060;-48
2021/12/10 11:48:12;;;;;;;10.10;5.78;;;3.60;99.90;;;;;;5027025;28;20094;-50
2021/12/10 11:50:55;;;;;;;11.13;5.93;;;3.60;99.90;;;;;;5044983;28;20056;-49
2021/12/10 11:53:21;;;;;;;;;;;3.70;99.90;;;;;;5026470;28;20060;-50
2021/12/10 11:55:56;;;;;;;8.85;5.55;;;3.70;99.90;;;;;;5045975;28;20026;-53
2021/12/10 11:58:22;;;;;;;8.75;5.47;;;3.70;99.90;;;;;;5029166;28;20091;-49
2021/12/10 12:00:50;;;;;;;10.48;5.45;;;3.70;99.90;;;;;;5045732;28;20061;-57
2021/12/10 12:03:21;;;;;;;9.73;5.43;;;3.80;99.90;;;;;;5029842;28;20942;-49
2021/12/10 12:05:49;;;;;;;10.75;6.82;;;3.80;99.90;;;;;;5045194;28;20463;-50
2021/12/10 12:08:18;;;;;;;11.18;6.10;;;3.70;99.90;;;;;;5026081;28;20056;-49
2021/12/10 12:10:47;;;;;;;10.98;5.07;;;3.80;99.90;;;;;;5046444;28;20198;-49
2021/12/10 12:13:51;;;;;;;10.30;5.20;;;3.80;99.90;;;;;;5025357;28;20071;-50
2021/12/10 12:16:14;;;;;;;24.30;9.32;;;3.80;99.90;;;;;;5043006;28;20435;-49
2021/12/10 12:18:46;;;;;;;14.35;7.60;;;3.80;99.90;;;;;;5025116;28;20240;-49
2021/12/10 12:21:37;;;;;;;13.38;7.55;;;3.80;99.90;;;;;;5043774;28;20080;-48
2021/12/10 12:26:50;;;;;;;11.95;6.70;;;3.90;99.90;;;;;;5045348;28;20052;-50
2021/12/10 12:29:18;;;;;;;9.80;4.93;;;3.80;99.90;;;;;;5020627;28;20465;-50
2021/12/10 12:31:52;;;;;;;12.93;6.78;;;3.90;99.90;;;;;;5047025;28;20056;-51
2021/12/10 12:34:22;;;;;;;9.52;5.50;;;3.90;99.90;;;;;;5043575;28;20088;-48
2021/12/10 12:36:51;;;;;;;7.32;5.07;;;3.90;99.90;;;;;;5043254;28;20504;-50
2021/12/10 12:39:38;;;;;;;8.73;5.20;;;4.00;99.90;;;;;;5042952;28;20119;-50
2021/12/10 12:42:19;;;;;;;10.27;6.10;;;3.90;99.90;;;;;;5029378;28;20139;-50
2021/12/10 12:44:47;;;;;;;6.63;4.90;;;3.90;99.90;;;;;;5043404;28;20061;-47
2021/12/10 12:47:22;;;;;;;9.00;5.15;;;4.00;99.90;;;;;;5047567;28;20065;-50
2021/12/10 12:49:48;;;;;;;12.50;5.40;;;4.00;99.90;;;;;;5041295;28;20513;-51
2021/12/10 12:52:21;;;;;;;13.15;5.53;;;4.00;99.90;;;;;;5043842;28;20059;-50
2021/12/10 12:55:10;;;;;;;9.40;5.13;;;4.00;99.90;;;;;;5046249;28;20057;-51
2021/12/10 12:57:51;;;;;;;11.43;6.15;;;4.10;99.90;;;;;;4946953;28;20058;-49
2021/12/10 13:00:32;;;;;;;10.55;5.05;;;4.10;99.90;;;;;;4945826;28;20614;-48
2021/12/10 13:03:04;;;;;;;12.23;5.65;;;4.10;99.90;;;;;;4947710;28;20141;-48
2021/12/10 13:05:38;;;;;;;7.35;5.00;;;4.10;99.90;;;;;;4946306;28;20466;-50